createdAt,value
2023-04-15T04:30:12.721Z,11.30
2023-04-15T06:00:41.129Z,11.70
2023-04-15T06:05:42.719Z,13.40
2023-04-15T06:10:44.375Z,11.98
2023-04-15T06:15:45.714Z,12.55
2023-04-15T06:20:47.065Z,11.30
2023-04-15T06:25:48.365Z,15.68
2023-04-15T06:30:49.902Z,11.55
2023-04-15T06:35:51.663Z,11.32
2023-04-15T06:40:52.964Z,12.85
2023-04-15T06:45:54.718Z,17.42
2023-04-15T06:50:56.080Z,11.38
2023-04-15T06:55:57.448Z,14.68
2023-04-15T07:00:59.035Z,13.85
2023-04-15T07:06:00.474Z,11.82
2023-04-15T07:11:02.161Z,13.32
2023-04-15T07:16:03.855Z,15.80
2023-04-15T07:21:05.285Z,15.70
2023-04-15T07:26:06.632Z,16.45
2023-04-15T07:31:07.968Z,12.02
2023-04-15T07:36:09.661Z,12.43
2023-04-15T07:41:11.186Z,11.40
2023-04-15T07:46:15.713Z,10.10
2023-04-15T07:51:17.370Z,10.55
2023-04-15T07:56:18.661Z,11.93
2023-04-15T08:01:19.975Z,6.80
2023-04-15T08:06:21.400Z,7.05
2023-04-15T08:11:22.785Z,6.32
2023-04-15T08:16:25.414Z,6.45
2023-04-15T08:21:26.955Z,5.32
2023-04-15T08:26:28.207Z,6.90
2023-04-15T08:31:29.712Z,4.72
2023-04-15T08:36:31.462Z,4.03
2023-04-15T08:41:34.650Z,4.80
2023-04-15T08:46:35.996Z,5.57
2023-04-15T08:51:37.659Z,5.20
2023-04-15T08:56:39.271Z,5.25
2023-04-15T09:01:41.292Z,5.60
2023-04-15T09:06:43.043Z,4.70
2023-04-15T09:11:44.380Z,6.03
2023-04-15T09:16:59.737Z,6.72
2023-04-15T09:22:01.999Z,4.45
2023-04-15T09:27:03.587Z,5.60
2023-04-15T09:32:14.295Z,5.18
2023-04-15T09:37:29.057Z,6.78
2023-04-15T09:42:33.258Z,4.75
2023-04-15T09:47:34.900Z,7.15
2023-04-15T09:52:41.296Z,4.38
2023-04-15T09:57:42.708Z,5.78
2023-04-15T10:02:44.162Z,6.32
2023-04-15T10:07:45.619Z,6.05
2023-04-15T10:12:47.157Z,8.15
2023-04-15T10:17:50.919Z,8.13
2023-04-15T10:22:56.503Z,5.85
2023-04-15T10:27:58.169Z,7.22
2023-04-15T10:33:00.389Z,6.35
2023-04-15T10:38:04.465Z,7.05
2023-04-15T10:43:06.692Z,6.70
2023-04-15T10:48:08.220Z,7.30
2023-04-15T10:53:10.478Z,6.50
2023-04-15T10:58:11.986Z,5.90
2023-04-15T11:03:13.457Z,4.75
2023-04-15T11:08:14.894Z,5.88
2023-04-15T11:13:17.366Z,6.80
2023-04-15T11:18:19.561Z,5.35
2023-04-15T11:23:28.973Z,4.72
2023-04-15T11:28:31.263Z,4.60
2023-04-15T11:33:32.997Z,5.10
2023-04-15T11:38:34.340Z,6.28
2023-04-15T11:43:35.838Z,4.57
2023-04-15T11:48:37.215Z,4.80
2023-04-15T11:53:45.985Z,5.18
2023-04-15T11:58:47.635Z,5.78
2023-04-15T12:03:49.573Z,7.53
2023-04-15T12:08:52.578Z,7.50
2023-04-15T12:13:55.597Z,8.18
2023-04-15T12:18:57.909Z,8.18
2023-04-15T12:24:02.012Z,7.32
2023-04-15T12:29:03.595Z,7.35
2023-04-15T12:34:07.984Z,7.93
2023-04-15T12:39:10.445Z,7.00
2023-04-15T12:44:11.758Z,9.63
2023-04-15T12:49:13.176Z,8.40
2023-04-15T12:54:14.444Z,9.73
2023-04-15T12:59:16.049Z,7.55
2023-04-15T13:04:17.650Z,6.32
2023-04-15T13:09:19.015Z,7.45
2023-04-15T13:14:20.453Z,9.55
2023-04-15T13:19:21.794Z,8.38
2023-04-15T13:24:23.274Z,9.25
2023-04-15T13:29:24.660Z,8.77
2023-04-15T13:34:26.186Z,8.50
2023-04-15T13:39:27.497Z,8.13
2023-04-15T13:44:29.724Z,8.88
2023-04-15T13:49:31.046Z,8.55
2023-04-15T13:54:37.908Z,8.50
2023-04-15T13:59:41.561Z,5.93
2023-04-15T14:04:42.843Z,6.88
2023-04-15T14:09:44.559Z,7.00
2023-04-15T14:14:46.143Z,6.68
2023-04-15T14:19:47.517Z,6.40
2023-04-15T14:24:48.845Z,6.93
2023-04-15T14:29:50.229Z,6.68
2023-04-15T14:34:51.506Z,6.82
2023-04-15T14:39:52.835Z,10.07
2023-04-15T14:44:54.164Z,8.73
2023-04-15T14:49:55.781Z,7.63
2023-04-15T14:54:57.235Z,10.27
2023-04-15T14:59:58.521Z,9.45
2023-04-15T15:05:01.065Z,9.30
2023-04-15T15:10:02.530Z,12.00
2023-04-15T15:15:15.486Z,12.27
2023-04-15T15:20:21.251Z,14.20
2023-04-15T15:25:22.547Z,12.02
2023-04-15T15:30:27.399Z,13.10
2023-04-15T15:35:28.878Z,11.20
2023-04-15T15:40:30.366Z,11.45
2023-04-15T15:45:31.728Z,10.50
2023-04-15T15:50:33.449Z,10.93
2023-04-15T15:55:38.141Z,10.27
2023-04-15T19:06:43.142Z,14.30
2023-04-15T19:11:44.517Z,11.10
2023-04-15T19:31:51.785Z,11.55
2023-04-15T19:36:53.221Z,10.95
2023-04-15T19:41:55.271Z,12.57
2023-04-15T19:46:56.880Z,13.90
2023-04-15T19:51:58.685Z,13.18
2023-04-15T20:12:51.625Z,17.02
2023-04-15T20:17:26.401Z,17.98
2023-04-15T21:17:47.132Z,22.00
2023-04-15T21:22:51.136Z,21.55
2023-04-15T21:27:52.571Z,23.48
2023-04-15T21:32:54.231Z,23.27
2023-04-15T21:37:55.580Z,22.13
2023-04-15T21:42:56.867Z,22.10
2023-04-15T21:48:07.578Z,28.42
2023-04-15T21:53:09.544Z,26.85
2023-04-15T21:58:12.579Z,28.08
2023-04-15T22:03:14.522Z,33.97
2023-04-15T22:08:16.051Z,30.25
2023-04-15T22:13:17.420Z,30.88
2023-04-15T22:18:18.731Z,34.65
2023-04-15T22:23:20.005Z,35.22
2023-04-15T22:28:23.985Z,39.97
2023-04-15T22:33:25.368Z,37.50
2023-04-15T22:38:26.641Z,39.90
2023-04-15T22:43:28.013Z,40.42
2023-04-15T22:48:29.408Z,37.50
2023-04-15T22:53:30.675Z,43.20
2023-04-15T22:58:31.964Z,39.58
2023-04-15T23:03:33.453Z,44.97
2023-04-15T23:08:54.626Z,38.75
2023-04-15T23:13:55.856Z,38.90
2023-04-15T23:18:57.222Z,42.47
2023-04-15T23:23:58.513Z,42.75
2023-04-15T23:28:59.863Z,48.15
2023-04-15T23:34:01.245Z,51.17
2023-04-15T23:39:02.599Z,38.85
2023-04-15T23:44:04.309Z,42.30
2023-04-15T23:49:05.621Z,39.30
2023-04-15T23:54:06.982Z,37.13
2023-04-15T23:59:08.593Z,37.17
